Time;durP1;ratioP1;P1;durP2;ratioP2;P2;SDS_P1;SDS_P2;PMS_P1;PMS_P2;Temp;Humidity;BMP_temperature;BMP_pressure;BME280_temperature;BME280_humidity;BME280_pressure;Samples;Min_cycle;Max_cycle;Signal;HPM_P1;HPM_P2
2021/12/31 00:00:40;;;;;;;3.97;2.67;;;12.70;99.90;;;;;;4994397;28;20584;-72
2021/12/31 00:03:06;;;;;;;4.37;2.23;;;12.70;99.90;;;;;;4993960;28;20507;-74
2021/12/31 00:05:31;;;;;;;3.53;2.40;;;12.70;99.90;;;;;;4993773;28;20240;-71
2021/12/31 00:07:57;;;;;;;3.23;2.40;;;12.70;99.90;;;;;;4993773;28;20172;-73
2021/12/31 00:10:23;;;;;;;3.27;2.63;;;12.70;99.90;;;;;;4994230;28;20620;-71
2021/12/31 00:12:48;;;;;;;3.20;1.93;;;12.70;99.90;;;;;;4993737;28;20200;-72
2021/12/31 00:15:14;;;;;;;2.97;2.60;;;12.70;99.90;;;;;;4993742;28;20467;-71
2021/12/31 00:17:40;;;;;;;3.30;2.30;;;12.70;99.90;;;;;;4993681;28;20173;-72
2021/12/31 00:20:17;;;;;;;2.53;2.33;;;12.70;99.90;;;;;;4993862;28;20712;-71
2021/12/31 00:23:01;;;;;;;3.73;2.13;;;12.60;99.90;;;;;;4993754;28;20259;-73
2021/12/31 00:25:27;;;;;;;2.80;2.43;;;12.60;99.90;;;;;;4994003;28;20956;-73
2021/12/31 00:27:53;;;;;;;2.80;1.83;;;12.60;99.90;;;;;;4994068;28;20474;-73
2021/12/31 00:30:19;;;;;;;2.97;2.47;;;12.60;99.90;;;;;;4993706;28;20434;-73
2021/12/31 00:32:44;;;;;;;3.23;1.93;;;12.60;99.90;;;;;;4993728;28;20902;-73
2021/12/31 00:35:10;;;;;;;2.60;2.07;;;12.60;99.90;;;;;;4993411;28;20593;-71
2021/12/31 00:37:38;;;;;;;3.63;2.00;;;12.60;99.90;;;;;;4993649;28;20173;-72
2021/12/31 00:40:07;;;;;;;4.83;2.90;;;12.60;99.90;;;;;;4993465;28;20180;-73
2021/12/31 00:42:33;;;;;;;2.60;2.40;;;12.60;99.90;;;;;;4993179;28;20451;-71
2021/12/31 00:44:58;;;;;;;4.93;2.70;;;12.60;99.90;;;;;;4993097;28;20443;-71
2021/12/31 00:47:24;;;;;;;4.47;3.67;;;12.60;99.90;;;;;;4993344;28;20316;-71
2021/12/31 00:49:49;;;;;;;3.97;3.57;;;12.60;99.90;;;;;;4993325;28;20688;-74
2021/12/31 00:52:15;;;;;;;3.93;2.47;;;12.60;99.90;;;;;;4992169;28;20589;-72
2021/12/31 00:54:41;;;;;;;3.10;2.47;;;12.60;99.90;;;;;;5016896;23;20294;-71
2021/12/31 00:57:07;;;;;;;3.73;2.93;;;12.60;99.90;;;;;;4971390;28;20422;-71
2021/12/31 00:59:33;;;;;;;4.07;3.20;;;12.70;99.90;;;;;;4974093;28;20416;-72
2021/12/31 01:02:00;;;;;;;4.47;3.20;;;12.70;99.90;;;;;;4973775;28;20522;-72
2021/12/31 01:04:26;;;;;;;5.07;3.47;;;12.70;99.90;;;;;;4973968;28;20412;-72
2021/12/31 01:06:53;;;;;;;6.00;2.40;;;12.70;99.90;;;;;;4973889;28;20432;-72
2021/12/31 01:09:18;;;;;;;4.77;3.10;;;12.70;99.90;;;;;;4974032;28;20401;-72
2021/12/31 01:11:47;;;;;;;3.73;3.23;;;12.70;99.90;;;;;;4973528;28;20471;-72
2021/12/31 01:14:27;;;;;;;3.77;2.80;;;12.70;99.90;;;;;;4970394;28;20182;-71
2021/12/31 01:16:58;;;;;;;4.63;3.17;;;12.70;99.90;;;;;;4954280;28;20497;-71
2021/12/31 01:19:46;;;;;;;3.37;2.70;;;12.80;99.90;;;;;;5068670;28;20515;-71
2021/12/31 01:22:16;;;;;;;2.80;2.13;;;12.70;99.90;;;;;;5068937;28;20400;-71
2021/12/31 01:24:43;;;;;;;3.20;2.80;;;12.70;99.90;;;;;;5068120;28;20428;-72
2021/12/31 01:27:09;;;;;;;3.77;3.33;;;12.80;99.90;;;;;;5068390;28;20411;-72
2021/12/31 01:29:34;;;;;;;2.30;2.10;;;12.80;99.90;;;;;;5068450;28;20488;-72
2021/12/31 01:32:00;;;;;;;2.03;1.77;;;12.80;99.90;;;;;;5068250;28;20408;-73
2021/12/31 01:34:25;;;;;;;5.77;2.80;;;12.80;99.90;;;;;;5068540;28;20529;-70
2021/12/31 01:36:51;;;;;;;4.07;2.80;;;12.80;99.90;;;;;;5068197;28;20166;-71
2021/12/31 01:39:17;;;;;;;2.50;2.10;;;12.80;99.90;;;;;;5068055;28;20597;-71
2021/12/31 01:41:42;;;;;;;2.30;2.10;;;12.80;99.90;;;;;;5068270;28;20435;-72
2021/12/31 01:44:08;;;;;;;3.30;2.87;;;12.80;99.90;;;;;;5068378;28;20945;-72
2021/12/31 01:46:36;;;;;;;2.97;2.70;;;12.80;99.90;;;;;;5067980;28;20187;-71
2021/12/31 01:49:03;;;;;;;3.77;2.70;;;12.80;99.90;;;;;;5068375;28;20484;-71
2021/12/31 01:51:29;;;;;;;3.40;3.00;;;12.80;99.90;;;;;;5068124;28;20426;-71
2021/12/31 01:53:56;;;;;;;3.90;3.03;;;12.80;99.90;;;;;;5067886;28;20416;-71
2021/12/31 01:56:24;;;;;;;5.17;2.80;;;12.90;99.90;;;;;;5067608;28;20436;-71
2021/12/31 01:58:54;;;;;;;4.70;2.87;;;12.90;99.90;;;;;;5067809;28;20452;-71
2021/12/31 02:01:21;;;;;;;2.53;2.03;;;12.90;99.90;;;;;;5067797;28;20396;-71
2021/12/31 02:03:47;;;;;;;3.10;2.37;;;13.00;99.90;;;;;;5067382;28;20416;-71
2021/12/31 02:06:12;;;;;;;3.00;2.17;;;13.00;99.90;;;;;;5067371;28;20420;-71
2021/12/31 02:08:38;;;;;;;3.37;2.80;;;13.00;99.90;;;;;;5067381;28;20174;-71
2021/12/31 02:11:03;;;;;;;3.00;2.70;;;13.00;99.90;;;;;;5067308;28;20182;-71
2021/12/31 02:13:29;;;;;;;3.80;2.40;;;13.00;99.90;;;;;;5067252;28;20245;-71
2021/12/31 02:15:55;;;;;;;2.57;2.30;;;13.00;99.90;;;;;;5067066;28;20307;-71
2021/12/31 02:18:20;;;;;;;5.90;2.73;;;13.00;99.90;;;;;;5066975;28;20202;-71
2021/12/31 02:20:48;;;;;;;2.83;2.40;;;13.00;99.90;;;;;;5067148;28;20167;-71
2021/12/31 02:23:20;;;;;;;3.30;2.20;;;13.10;99.90;;;;;;5066971;28;20249;-72
2021/12/31 02:25:45;;;;;;;2.67;2.40;;;13.00;99.90;;;;;;5065811;28;20437;-72
2021/12/31 02:28:11;;;;;;;3.60;2.63;;;13.00;99.90;;;;;;5067418;28;20409;-72
2021/12/31 02:30:36;;;;;;;2.40;1.73;;;12.90;99.90;;;;;;5055606;28;20249;-72
2021/12/31 02:33:03;;;;;;;4.30;2.73;;;12.80;99.90;;;;;;5053947;28;20413;-72
2021/12/31 02:35:30;;;;;;;3.57;2.97;;;12.80;99.90;;;;;;5054069;28;20183;-72
2021/12/31 02:37:56;;;;;;;4.80;2.70;;;12.80;99.90;;;;;;5053950;28;20457;-72
2021/12/31 02:40:23;;;;;;;6.10;2.60;;;12.80;99.90;;;;;;5054024;28;20435;-72
2021/12/31 02:42:49;;;;;;;2.90;2.33;;;12.80;99.90;;;;;;5052529;28;20281;-72
2021/12/31 02:45:14;;;;;;;3.80;2.07;;;12.80;99.90;;;;;;5053565;28;20437;-71
2021/12/31 02:47:45;;;;;;;3.03;1.90;;;12.80;99.90;;;;;;5053718;28;20540;-71
2021/12/31 02:50:17;;;;;;;2.93;2.63;;;12.80;99.90;;;;;;5054129;28;20182;-72
2021/12/31 02:52:45;;;;;;;4.10;2.63;;;12.80;99.90;;;;;;5053736;28;20459;-71
2021/12/31 02:55:12;;;;;;;2.63;2.23;;;12.80;99.90;;;;;;5053408;28;20456;-72
2021/12/31 02:57:39;;;;;;;2.87;2.57;;;12.80;99.90;;;;;;5053497;28;20446;-72
2021/12/31 03:00:05;;;;;;;2.80;2.10;;;12.80;99.90;;;;;;5053374;28;20409;-71
2021/12/31 03:02:32;;;;;;;2.57;2.10;;;12.90;99.90;;;;;;5053399;28;20413;-71
2021/12/31 03:05:00;;;;;;;3.60;1.90;;;12.80;99.90;;;;;;5053461;28;20444;-71
2021/12/31 03:07:26;;;;;;;3.20;2.40;;;12.80;99.90;;;;;;5052055;28;20429;-71
2021/12/31 03:09:53;;;;;;;4.00;3.00;;;12.80;99.90;;;;;;5053487;28;20463;-71
2021/12/31 03:12:20;;;;;;;3.50;2.50;;;12.80;99.90;;;;;;5053439;28;20238;-71
2021/12/31 03:14:47;;;;;;;2.53;1.90;;;12.80;99.90;;;;;;5053174;28;20429;-71
2021/12/31 03:17:13;;;;;;;4.73;2.57;;;12.80;99.90;;;;;;5053360;28;20413;-70
2021/12/31 03:19:39;;;;;;;3.00;2.53;;;12.80;99.90;;;;;;5053211;28;20410;-71
2021/12/31 03:22:05;;;;;;;3.10;2.30;;;12.80;99.90;;;;;;5053213;28;20471;-70
2021/12/31 03:24:31;;;;;;;3.50;2.67;;;12.80;99.90;;;;;;5052841;28;20256;-71
2021/12/31 03:26:56;;;;;;;3.83;3.30;;;12.80;99.90;;;;;;5053020;28;20861;-71
2021/12/31 03:29:22;;;;;;;2.70;2.40;;;12.80;99.90;;;;;;5052899;28;20424;-71
2021/12/31 03:31:48;;;;;;;4.10;2.53;;;12.70;99.90;;;;;;5052852;28;20583;-70
2021/12/31 03:34:14;;;;;;;3.97;2.67;;;12.80;99.90;;;;;;5052929;28;20433;-71
2021/12/31 03:36:41;;;;;;;7.67;3.10;;;12.80;99.90;;;;;;5052732;28;20159;-71
2021/12/31 03:39:06;;;;;;;3.00;2.70;;;12.80;99.90;;;;;;5052622;28;20535;-71
2021/12/31 03:41:32;;;;;;;6.67;3.77;;;12.80;99.90;;;;;;5051936;28;20480;-71
2021/12/31 03:43:57;;;;;;;4.63;3.10;;;12.80;99.90;;;;;;5052913;28;20163;-71
2021/12/31 03:46:23;;;;;;;4.27;3.00;;;12.80;99.90;;;;;;5052737;28;20182;-71
2021/12/31 03:48:48;;;;;;;3.33;2.33;;;12.80;99.90;;;;;;5052776;28;20185;-71
2021/12/31 03:51:14;;;;;;;3.70;3.20;;;12.80;99.90;;;;;;5052643;28;20167;-71
2021/12/31 03:53:39;;;;;;;5.27;2.93;;;12.80;99.90;;;;;;5052600;28;20171;-71
2021/12/31 03:56:06;;;;;;;5.53;3.10;;;12.80;99.90;;;;;;5052465;28;20699;-71
2021/12/31 03:58:32;;;;;;;3.40;2.43;;;12.80;99.90;;;;;;5052525;28;20277;-70
2021/12/31 04:00:57;;;;;;;4.53;3.50;;;12.80;99.90;;;;;;5052540;28;20508;-71
2021/12/31 04:03:23;;;;;;;4.17;3.70;;;12.80;99.90;;;;;;5052748;28;20160;-70
2021/12/31 04:05:50;;;;;;;3.50;2.50;;;12.80;99.90;;;;;;5053284;28;20556;-71
2021/12/31 04:08:15;;;;;;;5.80;3.57;;;12.80;99.90;;;;;;5054199;28;20259;-71
2021/12/31 04:10:42;;;;;;;3.07;2.50;;;12.80;99.90;;;;;;5053682;28;20932;-71
2021/12/31 04:13:08;;;;;;;3.37;2.27;;;12.80;99.90;;;;;;5052302;28;20258;-70
2021/12/31 04:15:34;;;;;;;2.93;2.63;;;12.80;99.90;;;;;;5051953;28;20587;-70
2021/12/31 04:17:59;;;;;;;4.23;3.57;;;12.80;99.90;;;;;;5050660;28;20214;-69
2021/12/31 04:20:37;;;;;;;3.43;2.80;;;12.80;99.90;;;;;;5051988;28;20186;-70
2021/12/31 04:23:11;;;;;;;4.37;2.90;;;12.80;99.90;;;;;;5052080;28;20533;-70
2021/12/31 04:25:37;;;;;;;4.00;2.73;;;12.80;99.90;;;;;;5051762;28;20796;-70
2021/12/31 04:28:04;;;;;;;3.70;2.80;;;12.80;99.90;;;;;;5052229;28;20420;-70
2021/12/31 04:30:29;;;;;;;3.23;2.23;;;12.80;99.90;;;;;;5051803;28;20665;-70
2021/12/31 04:32:55;;;;;;;2.47;2.27;;;12.80;99.90;;;;;;5051612;28;20420;-70
2021/12/31 04:35:20;;;;;;;3.60;2.50;;;12.80;99.90;;;;;;5051549;28;20264;-71
2021/12/31 04:37:46;;;;;;;3.37;2.20;;;12.80;99.90;;;;;;5051769;28;20208;-72
2021/12/31 04:40:12;;;;;;;5.20;3.13;;;12.80;99.90;;;;;;5052122;28;20207;-71
2021/12/31 04:42:44;;;;;;;4.53;2.60;;;12.80;99.90;;;;;;5052005;28;20514;-70
2021/12/31 04:45:11;;;;;;;3.60;2.43;;;12.70;99.90;;;;;;5051636;28;20426;-70
2021/12/31 04:47:38;;;;;;;3.30;2.60;;;12.80;99.90;;;;;;5051687;28;20896;-70
2021/12/31 04:50:04;;;;;;;2.60;2.40;;;12.70;99.90;;;;;;5051615;28;20822;-71
2021/12/31 04:52:30;;;;;;;3.30;2.37;;;12.70;99.90;;;;;;5051101;28;20451;-71
2021/12/31 04:54:55;;;;;;;6.80;2.70;;;12.70;99.90;;;;;;5051530;28;20433;-71
2021/12/31 04:57:24;;;;;;;3.00;2.30;;;12.70;99.90;;;;;;5051385;28;20638;-71
2021/12/31 04:59:49;;;;;;;4.07;2.60;;;12.70;99.90;;;;;;5051413;28;20174;-71
2021/12/31 05:02:15;;;;;;;2.57;2.00;;;12.70;99.90;;;;;;5051384;28;20420;-71
2021/12/31 05:04:41;;;;;;;2.67;1.90;;;12.80;99.90;;;;;;5051277;28;20295;-71
2021/12/31 05:07:06;;;;;;;2.60;2.40;;;12.80;99.90;;;;;;5051211;28;20248;-71
2021/12/31 05:09:32;;;;;;;2.30;2.10;;;12.70;99.90;;;;;;5051423;28;20260;-71
2021/12/31 05:11:57;;;;;;;2.40;2.00;;;12.70;99.90;;;;;;5051214;28;20171;-71
2021/12/31 05:14:23;;;;;;;2.40;1.97;;;12.80;99.90;;;;;;5051527;28;20171;-70
2021/12/31 05:16:49;;;;;;;2.17;1.97;;;12.80;99.90;;;;;;5051256;28;20171;-70
2021/12/31 05:19:14;;;;;;;3.37;1.90;;;12.90;99.90;;;;;;5051330;28;20207;-71
2021/12/31 05:21:39;;;;;;;2.33;1.80;;;12.90;99.90;;;;;;5051814;28;20170;-71
2021/12/31 05:24:05;;;;;;;1.93;1.83;;;12.80;99.90;;;;;;5052102;28;20641;-71
2021/12/31 05:26:31;;;;;;;3.37;1.97;;;12.90;99.90;;;;;;5051924;28;20595;-71
2021/12/31 05:28:56;;;;;;;2.57;1.93;;;12.90;99.90;;;;;;5051998;28;20572;-72
2021/12/31 05:31:22;;;;;;;2.20;2.00;;;12.80;99.90;;;;;;5052086;28;20182;-71
2021/12/31 05:33:47;;;;;;;2.10;1.80;;;12.90;99.90;;;;;;5051423;28;20517;-72
2021/12/31 05:36:13;;;;;;;2.40;1.97;;;12.90;99.90;;;;;;5049929;28;20183;-71
2021/12/31 05:38:39;;;;;;;2.60;1.60;;;12.90;99.90;;;;;;5051514;28;20199;-72
2021/12/31 05:41:05;;;;;;;1.57;1.47;;;12.90;99.90;;;;;;5051368;28;20966;-70
2021/12/31 05:43:30;;;;;;;1.70;1.60;;;12.90;99.90;;;;;;5051279;28;20167;-71
2021/12/31 05:45:56;;;;;;;2.10;1.70;;;12.90;99.90;;;;;;5051107;28;20447;-70
2021/12/31 05:48:21;;;;;;;1.73;1.63;;;12.90;99.90;;;;;;5051109;28;20179;-70
2021/12/31 05:50:47;;;;;;;1.90;1.70;;;12.90;99.90;;;;;;5051119;28;20173;-71
2021/12/31 05:53:12;;;;;;;2.03;1.90;;;12.90;99.90;;;;;;5051183;28;20171;-71
2021/12/31 05:55:38;;;;;;;2.00;1.90;;;12.90;99.90;;;;;;5050999;28;20218;-71
2021/12/31 05:58:03;;;;;;;1.77;1.67;;;12.90;99.90;;;;;;5050958;28;20654;-71
2021/12/31 06:00:29;;;;;;;3.27;2.30;;;12.90;99.90;;;;;;5050972;28;20171;-70
2021/12/31 06:02:56;;;;;;;1.93;1.70;;;12.90;99.90;;;;;;5050794;28;20533;-70
2021/12/31 06:05:25;;;;;;;1.80;1.70;;;12.90;99.90;;;;;;5053182;28;20932;-70
2021/12/31 06:07:51;;;;;;;1.80;1.37;;;12.90;99.90;;;;;;5055283;28;20500;-71
2021/12/31 06:10:16;;;;;;;3.50;1.83;;;12.90;99.90;;;;;;5054982;28;20421;-71
2021/12/31 06:12:43;;;;;;;1.70;1.60;;;13.00;99.90;;;;;;5054571;28;20767;-71
2021/12/31 06:15:09;;;;;;;2.00;1.80;;;12.90;99.90;;;;;;5054588;28;20191;-71
2021/12/31 06:17:37;;;;;;;2.33;1.90;;;12.90;99.90;;;;;;5054557;28;20464;-72
2021/12/31 06:20:05;;;;;;;1.57;1.47;;;13.00;99.90;;;;;;5054496;28;20401;-71
2021/12/31 06:22:31;;;;;;;1.80;1.43;;;12.90;99.90;;;;;;5054459;28;20437;-71
2021/12/31 06:24:57;;;;;;;2.37;1.50;;;12.90;99.90;;;;;;5054243;28;20512;-71
2021/12/31 06:27:22;;;;;;;2.90;2.07;;;12.90;99.90;;;;;;5054591;28;20445;-70
2021/12/31 06:29:48;;;;;;;3.10;1.80;;;13.00;99.90;;;;;;5055258;28;20180;-72
2021/12/31 06:32:13;;;;;;;2.57;2.20;;;13.00;99.90;;;;;;5054787;28;20167;-72
2021/12/31 06:34:39;;;;;;;3.17;2.30;;;12.90;99.90;;;;;;5054321;28;20206;-72
2021/12/31 06:37:04;;;;;;;2.47;2.27;;;12.90;99.90;;;;;;5054275;28;20526;-70
2021/12/31 06:39:30;;;;;;;2.03;1.93;;;13.00;99.90;;;;;;5053982;28;20203;-71
2021/12/31 06:41:55;;;;;;;2.60;1.87;;;13.00;99.90;;;;;;5054263;28;20668;-71
2021/12/31 06:44:21;;;;;;;1.77;1.63;;;13.00;99.90;;;;;;5054121;28;20198;-71
2021/12/31 06:46:46;;;;;;;2.80;2.60;;;13.00;99.90;;;;;;5054001;28;20190;-71
2021/12/31 06:49:12;;;;;;;3.00;2.37;;;13.00;99.90;;;;;;5053795;28;20186;-71
2021/12/31 06:51:38;;;;;;;2.30;2.10;;;13.00;99.90;;;;;;5053700;28;20528;-71
2021/12/31 06:54:04;;;;;;;2.60;1.83;;;13.00;99.90;;;;;;5053726;28;20645;-71
2021/12/31 06:56:29;;;;;;;2.13;1.93;;;12.90;99.90;;;;;;5065092;22;20257;-71
2021/12/31 06:58:55;;;;;;;1.93;1.70;;;12.90;99.90;;;;;;5033409;28;20462;-71
2021/12/31 07:01:21;;;;;;;2.50;2.20;;;13.00;99.90;;;;;;5032536;28;20661;-72
2021/12/31 07:03:46;;;;;;;2.60;1.83;;;13.00;99.90;;;;;;5033544;28;20199;-72
2021/12/31 07:06:12;;;;;;;2.37;2.17;;;13.00;99.90;;;;;;5033528;28;20443;-72
2021/12/31 07:08:38;;;;;;;2.40;1.90;;;13.00;99.90;;;;;;5033733;28;20586;-71
2021/12/31 07:11:04;;;;;;;3.60;2.70;;;12.90;99.90;;;;;;5033712;28;20175;-72
2021/12/31 07:13:29;;;;;;;2.63;1.83;;;12.90;99.90;;;;;;5033379;28;20414;-72
2021/12/31 07:15:55;;;;;;;2.27;2.07;;;12.90;99.90;;;;;;5033385;28;20196;-72
2021/12/31 07:18:21;;;;;;;3.40;2.77;;;12.90;99.90;;;;;;5033260;28;20214;-72
2021/12/31 07:20:47;;;;;;;2.00;1.80;;;12.90;99.90;;;;;;5031966;28;20510;-73
2021/12/31 07:23:16;;;;;;;2.17;1.97;;;12.90;99.90;;;;;;5033218;28;20410;-72
2021/12/31 07:25:42;;;;;;;2.60;2.40;;;12.90;99.90;;;;;;5032988;28;20426;-72
2021/12/31 07:28:09;;;;;;;3.20;2.37;;;12.90;99.90;;;;;;5033111;28;20446;-71
2021/12/31 07:30:36;;;;;;;2.83;2.20;;;12.90;99.90;;;;;;5033123;28;20877;-72
2021/12/31 07:33:02;;;;;;;2.83;2.63;;;12.90;99.90;;;;;;5032931;28;20907;-71
2021/12/31 07:35:27;;;;;;;2.70;2.47;;;12.90;99.90;;;;;;5033147;28;20403;-72
2021/12/31 07:37:56;;;;;;;1.77;1.67;;;12.90;99.90;;;;;;5033410;28;20455;-72
2021/12/31 07:40:37;;;;;;;2.40;1.83;;;12.90;99.90;;;;;;5032240;28;20155;-73
2021/12/31 07:43:03;;;;;;;3.23;2.57;;;12.90;99.90;;;;;;5032960;28;20424;-71
2021/12/31 07:45:28;;;;;;;1.87;1.57;;;13.00;99.90;;;;;;5032629;28;20406;-71
2021/12/31 07:47:54;;;;;;;2.30;2.10;;;13.00;99.90;;;;;;5032944;28;20936;-71
2021/12/31 07:50:19;;;;;;;1.80;1.70;;;13.00;99.90;;;;;;5032865;28;20219;-71
2021/12/31 07:52:45;;;;;;;3.00;2.33;;;13.00;99.90;;;;;;5032737;28;20183;-71
2021/12/31 07:55:10;;;;;;;2.57;2.00;;;13.00;99.90;;;;;;5032759;28;20225;-71
2021/12/31 07:57:36;;;;;;;2.27;1.83;;;13.00;99.90;;;;;;5032589;28;20596;-72
2021/12/31 08:00:03;;;;;;;2.30;2.10;;;13.00;99.90;;;;;;5030969;28;20175;-73
2021/12/31 08:02:29;;;;;;;3.10;2.07;;;13.10;99.90;;;;;;5032175;28;20538;-73
2021/12/31 08:04:54;;;;;;;2.37;2.17;;;13.10;99.90;;;;;;5032634;28;20444;-70
2021/12/31 08:07:19;;;;;;;3.00;2.60;;;13.10;99.90;;;;;;5032424;28;20190;-73
2021/12/31 08:09:45;;;;;;;2.10;2.00;;;13.10;99.90;;;;;;5032283;28;20172;-72
2021/12/31 08:12:10;;;;;;;2.20;2.00;;;13.10;99.90;;;;;;5032079;28;20246;-73
2021/12/31 08:14:36;;;;;;;2.43;2.20;;;13.10;99.90;;;;;;5032154;28;20694;-73
2021/12/31 08:17:01;;;;;;;1.87;1.77;;;13.10;99.90;;;;;;5032107;28;20646;-73
2021/12/31 08:19:27;;;;;;;2.03;1.90;;;13.20;99.90;;;;;;5032016;28;20257;-73
2021/12/31 08:21:52;;;;;;;1.73;1.57;;;13.10;99.90;;;;;;5032011;28;20800;-73
2021/12/31 08:24:18;;;;;;;2.43;2.07;;;13.20;99.90;;;;;;5031949;28;20177;-73
2021/12/31 08:26:43;;;;;;;2.77;2.13;;;13.20;99.90;;;;;;5032527;28;20662;-72
2021/12/31 08:29:12;;;;;;;2.70;1.97;;;13.20;99.90;;;;;;5031861;28;20202;-73
2021/12/31 08:31:38;;;;;;;2.60;1.80;;;13.20;99.90;;;;;;5031969;28;20160;-73
2021/12/31 08:34:04;;;;;;;1.73;1.63;;;13.20;99.90;;;;;;5032260;28;20414;-73
2021/12/31 08:36:29;;;;;;;1.67;1.57;;;13.20;99.90;;;;;;5031853;28;20573;-74
2021/12/31 08:38:55;;;;;;;1.50;1.40;;;13.20;99.90;;;;;;5031865;28;20207;-73
2021/12/31 08:41:20;;;;;;;2.23;1.97;;;13.20;99.90;;;;;;5031940;28;20259;-73
2021/12/31 08:43:46;;;;;;;1.50;1.40;;;13.30;99.90;;;;;;5030246;28;20251;-72
2021/12/31 08:46:11;;;;;;;1.83;1.73;;;13.30;99.90;;;;;;5030463;28;20190;-73
2021/12/31 08:48:37;;;;;;;1.83;1.73;;;13.30;99.90;;;;;;5030617;28;20207;-72
2021/12/31 08:51:02;;;;;;;1.60;1.47;;;13.30;99.90;;;;;;5031805;28;20175;-72
2021/12/31 08:53:28;;;;;;;1.87;1.63;;;13.40;99.90;;;;;;5029839;28;20183;-72
2021/12/31 08:55:53;;;;;;;1.30;1.20;;;13.30;99.90;;;;;;5031160;28;20261;-72
2021/12/31 08:58:19;;;;;;;1.90;1.80;;;13.30;99.90;;;;;;5034442;28;20565;-74
2021/12/31 09:00:44;;;;;;;1.87;1.40;;;13.30;99.90;;;;;;5041049;28;20172;-72
2021/12/31 09:03:09;;;;;;;1.33;1.20;;;13.40;99.90;;;;;;5037330;28;20692;-73
2021/12/31 09:05:35;;;;;;;1.40;1.30;;;13.30;99.90;;;;;;5035628;28;20192;-73
2021/12/31 09:08:00;;;;;;;1.20;1.10;;;13.40;99.90;;;;;;5031913;28;20225;-73
2021/12/31 09:10:26;;;;;;;1.90;1.70;;;13.40;99.90;;;;;;5031390;28;20179;-73
2021/12/31 09:12:51;;;;;;;1.77;1.40;;;13.40;99.90;;;;;;5031362;28;20660;-73
2021/12/31 09:15:17;;;;;;;1.80;1.30;;;13.50;99.90;;;;;;5031495;28;20358;-72
2021/12/31 09:17:44;;;;;;;1.30;1.20;;;13.50;99.90;;;;;;5031432;28;20530;-73
2021/12/31 09:20:10;;;;;;;1.17;1.07;;;13.50;99.90;;;;;;5031346;28;20399;-73
2021/12/31 09:22:36;;;;;;;1.87;1.20;;;13.50;99.90;;;;;;5031434;28;20398;-73
2021/12/31 09:25:02;;;;;;;1.37;1.23;;;13.40;99.90;;;;;;5031299;28;20767;-73
2021/12/31 09:27:29;;;;;;;1.47;1.37;;;13.40;99.90;;;;;;5031057;28;20188;-73
2021/12/31 09:29:55;;;;;;;1.10;1.10;;;13.50;99.90;;;;;;5013512;28;20755;-73
2021/12/31 09:32:21;;;;;;;1.40;1.30;;;13.50;99.90;;;;;;5031435;28;20403;-73
2021/12/31 09:34:48;;;;;;;1.20;1.10;;;13.50;99.90;;;;;;5031337;28;20505;-73
2021/12/31 09:37:14;;;;;;;1.60;1.43;;;13.50;99.90;;;;;;5031393;28;20429;-73
2021/12/31 09:39:40;;;;;;;1.47;1.30;;;13.50;99.90;;;;;;5014884;28;20470;-73
2021/12/31 09:42:06;;;;;;;3.33;1.20;;;13.50;99.90;;;;;;5035082;28;20449;-74
2021/12/31 09:44:33;;;;;;;1.43;1.33;;;13.50;99.90;;;;;;5035321;28;20591;-72
2021/12/31 09:46:58;;;;;;;1.70;1.60;;;13.60;99.90;;;;;;5035243;28;20513;-74
2021/12/31 09:49:24;;;;;;;1.87;1.77;;;13.60;99.90;;;;;;5035008;28;20486;-74
2021/12/31 09:51:51;;;;;;;1.93;1.83;;;13.60;99.90;;;;;;5035079;28;20167;-74
2021/12/31 09:54:21;;;;;;;1.20;1.10;;;13.70;99.90;;;;;;5034767;28;20176;-75
2021/12/31 09:56:47;;;;;;;1.97;1.77;;;13.60;99.90;;;;;;5014804;28;20459;-73
2021/12/31 09:59:13;;;;;;;0.90;0.90;;;13.60;99.90;;;;;;5015034;28;20471;-74
2021/12/31 10:01:49;;;;;;;1.20;1.10;;;13.60;99.90;;;;;;5020828;28;20716;-74
2021/12/31 10:04:14;;;;;;;1.40;1.30;;;13.60;99.90;;;;;;5034795;28;20589;-72
2021/12/31 10:07:05;;;;;;;1.70;1.60;;;13.60;99.90;;;;;;5034256;28;20454;-74
2021/12/31 10:09:31;;;;;;;2.10;1.10;;;13.60;99.90;;;;;;5034461;28;20254;-73
2021/12/31 10:11:57;;;;;;;2.50;0.90;;;13.60;99.90;;;;;;5034158;28;20486;-73
2021/12/31 10:14:34;;;;;;;1.20;1.10;;;13.60;99.90;;;;;;5034430;28;20481;-74
2021/12/31 10:16:59;;;;;;;1.30;1.20;;;13.60;99.90;;;;;;5034511;28;20428;-74
2021/12/31 10:19:25;;;;;;;1.40;1.27;;;13.60;99.90;;;;;;5034479;28;20466;-74
2021/12/31 10:21:54;;;;;;;1.10;1.00;;;13.60;99.90;;;;;;5034685;28;20195;-73
2021/12/31 10:24:25;;;;;;;1.00;1.00;;;13.60;99.90;;;;;;5034669;28;20572;-74
2021/12/31 10:26:56;;;;;;;1.20;1.00;;;13.70;99.90;;;;;;5034428;28;20437;-74
2021/12/31 10:29:22;;;;;;;1.43;1.00;;;13.60;99.90;;;;;;5034573;28;20414;-74
2021/12/31 10:31:53;;;;;;;1.30;1.20;;;13.60;99.90;;;;;;5034625;28;20772;-73
2021/12/31 10:34:28;;;;;;;0.93;0.93;;;13.60;99.90;;;;;;5034460;28;20184;-73
2021/12/31 10:36:55;;;;;;;1.63;1.53;;;13.60;99.90;;;;;;5034144;28;20426;-73
2021/12/31 10:39:24;;;;;;;1.10;1.00;;;13.60;99.90;;;;;;5034032;28;20560;-74
2021/12/31 10:42:00;;;;;;;4.20;1.40;;;13.50;99.90;;;;;;5034486;28;20516;-74
2021/12/31 10:44:46;;;;;;;1.53;1.00;;;13.60;99.90;;;;;;5034477;28;20446;-73
2021/12/31 10:47:17;;;;;;;1.50;1.40;;;13.50;99.90;;;;;;5034494;28;20513;-74
2021/12/31 10:50:32;;;;;;;0.97;0.90;;;13.50;99.90;;;;;;5034273;28;20452;-74
2021/12/31 10:53:01;;;;;;;1.00;0.97;;;13.50;99.90;;;;;;5017906;28;20406;-74
2021/12/31 10:55:30;;;;;;;1.57;1.30;;;13.50;99.90;;;;;;5034361;28;20410;-73
2021/12/31 10:57:57;;;;;;;1.40;1.30;;;13.50;99.90;;;;;;5034375;28;20497;-73
2021/12/31 11:00:30;;;;;;;1.10;1.00;;;13.50;99.90;;;;;;5016719;28;20415;-75
2021/12/31 11:02:56;;;;;;;1.00;1.00;;;13.50;99.90;;;;;;5034506;28;20873;-73
2021/12/31 11:05:23;;;;;;;1.90;1.00;;;13.50;99.90;;;;;;5034386;28;20414;-73
2021/12/31 11:07:50;;;;;;;1.30;0.97;;;13.50;99.90;;;;;;5034631;28;20437;-73
2021/12/31 11:10:24;;;;;;;1.03;0.80;;;13.50;99.90;;;;;;5034662;28;20414;-74
2021/12/31 11:12:51;;;;;;;1.00;0.90;;;13.50;99.90;;;;;;5034183;28;20415;-74
2021/12/31 11:15:17;;;;;;;1.43;1.20;;;13.50;99.90;;;;;;5034234;28;20789;-72
2021/12/31 11:17:42;;;;;;;2.40;1.07;;;13.60;99.90;;;;;;5034552;28;20453;-73
2021/12/31 11:20:10;;;;;;;0.70;0.70;;;13.60;99.90;;;;;;5034010;28;20175;-72
2021/12/31 11:22:37;;;;;;;0.80;0.80;;;13.60;99.90;;;;;;5034311;28;20453;-72
2021/12/31 11:25:23;;;;;;;1.00;1.00;;;13.60;99.90;;;;;;5033906;28;20410;-72
2021/12/31 11:27:51;;;;;;;1.20;1.10;;;13.60;99.90;;;;;;5033352;28;20955;-74
2021/12/31 11:30:33;;;;;;;0.87;0.80;;;13.60;99.90;;;;;;5033521;28;20493;-74
2021/12/31 11:33:09;;;;;;;0.73;0.73;;;13.60;99.90;;;;;;5033565;28;20410;-72
2021/12/31 11:35:44;;;;;;;1.33;1.20;;;13.60;99.90;;;;;;5033387;28;20870;-73
2021/12/31 11:38:23;;;;;;;1.00;0.90;;;13.60;99.90;;;;;;5033427;28;20445;-73
2021/12/31 11:41:11;;;;;;;0.80;0.80;;;13.60;99.90;;;;;;5025867;28;20409;-73
2021/12/31 11:43:38;;;;;;;0.90;0.90;;;13.60;99.90;;;;;;4996147;28;20438;-73
2021/12/31 11:46:15;;;;;;;2.27;1.10;;;13.60;99.90;;;;;;5013310;28;20435;-73
2021/12/31 11:48:43;;;;;;;1.10;1.00;;;13.60;99.90;;;;;;5013661;28;20912;-73
2021/12/31 11:51:09;;;;;;;1.10;0.93;;;13.60;99.90;;;;;;5013502;28;20491;-73
2021/12/31 11:53:57;;;;;;;0.97;0.80;;;13.60;99.90;;;;;;5013381;28;20407;-72
2021/12/31 11:56:43;;;;;;;1.57;0.80;;;13.60;99.90;;;;;;5024107;28;20468;-73
2021/12/31 11:59:16;;;;;;;1.77;1.67;;;13.60;99.90;;;;;;5033157;28;21047;-74
2021/12/31 12:01:50;;;;;;;0.80;0.80;;;13.50;99.90;;;;;;5032425;28;20406;-74
2021/12/31 12:04:26;;;;;;;1.00;0.93;;;13.50;99.90;;;;;;5034542;28;20426;-72
2021/12/31 12:07:02;;;;;;;1.20;0.90;;;13.50;99.90;;;;;;5033672;28;20425;-73
2021/12/31 12:09:37;;;;;;;0.80;0.73;;;13.50;99.90;;;;;;5034553;28;20409;-73
2021/12/31 12:12:04;;;;;;;1.23;1.13;;;13.50;99.90;;;;;;5034156;28;20452;-74
2021/12/31 12:14:36;;;;;;;1.10;1.00;;;13.50;99.90;;;;;;5034938;28;20772;-73
2021/12/31 12:17:02;;;;;;;1.30;1.10;;;13.50;99.90;;;;;;5040597;28;20452;-74
2021/12/31 12:19:46;;;;;;;0.90;0.80;;;13.50;99.90;;;;;;5043335;28;20459;-72
2021/12/31 12:22:57;;;;;;;0.90;0.90;;;13.60;99.90;;;;;;5044672;28;20445;-73
2021/12/31 12:25:25;;;;;;;1.03;0.93;;;13.60;99.90;;;;;;5020937;28;20422;-73
2021/12/31 12:28:09;;;;;;;0.87;0.87;;;13.60;99.90;;;;;;5024680;28;20418;-73
2021/12/31 12:30:38;;;;;;;1.10;1.00;;;13.70;99.90;;;;;;5001625;28;20469;-73
2021/12/31 12:35:40;;;;;;;0.70;0.60;;;13.70;99.90;;;;;;5016503;28;20441;-73
2021/12/31 12:38:23;;;;;;;1.57;1.13;;;13.80;99.90;;;;;;5020422;28;20453;-73
2021/12/31 12:40:51;;;;;;;4.63;2.20;;;13.90;99.90;;;;;;5032695;28;20410;-73
2021/12/31 12:43:37;;;;;;;0.80;0.80;;;13.90;99.90;;;;;;5032217;28;20407;-73
2021/12/31 12:46:05;;;;;;;0.80;0.80;;;13.90;99.90;;;;;;5032535;28;20896;-74
2021/12/31 12:48:37;;;;;;;1.20;1.00;;;13.90;99.90;;;;;;5032428;28;20410;-73
2021/12/31 12:51:08;;;;;;;2.03;1.10;;;13.90;99.90;;;;;;5032693;28;20438;-74
2021/12/31 12:53:37;;;;;;;1.17;1.07;;;13.90;99.90;;;;;;5031920;28;20414;-73